Time,TemperatureF,DewpointF,PressureIn,WindDirection,WindDirectionDegrees,WindSpeedMPH,WindSpeedGustMPH,Humidity,HourlyPrecipIn,Conditions,Clouds,dailyrainin,SoftwareType,DateUTC
2013-02-21 00:00:00,53.5,40.0,29.95,East,86,2.0,13.0,60,0.00,,---,0.00,VWS V14.01,2013-02-21 06:00:00,
2013-02-21 00:01:00,53.5,40.4,29.95,SE,137,4.0,9.0,61,0.00,,---,0.00,VWS V14.01,2013-02-21 06:01:00,
2013-02-21 00:07:00,53.5,40.4,29.95,SE,133,4.0,9.0,61,0.00,,---,0.00,VWS V14.01,2013-02-21 06:07:00,
2013-02-21 00:12:00,53.6,40.9,29.95,SSE,153,1.0,10.0,62,0.00,,---,0.00,VWS V14.01,2013-02-21 06:12:00,
2013-02-21 00:15:00,53.6,40.9,29.95,ESE,112,0.0,10.0,62,0.00,,---,0.00,VWS V14.01,2013-02-21 06:15:00,
2013-02-21 00:17:00,53.3,40.6,29.95,SSE,149,6.0,8.0,62,0.00,,---,0.00,VWS V14.01,2013-02-21 06:17:00,
2013-02-21 00:22:00,53.5,40.8,29.95,SE,138,4.0,8.0,62,0.00,,---,0.00,VWS V14.01,2013-02-21 06:22:00,
2013-02-21 00:27:00,53.5,40.8,29.95,SE,134,0.0,8.0,62,0.00,,---,0.00,VWS V14.01,2013-02-21 06:27:00,
2013-02-21 00:30:00,53.2,40.5,29.95,SE,130,2.0,8.0,62,0.00,,---,0.00,VWS V14.01,2013-02-21 06:30:00,
2013-02-21 00:32:00,53.3,40.6,29.95,SE,135,0.0,5.0,62,0.00,,---,0.00,VWS V14.01,2013-02-21 06:32:00,
2013-02-21 00:37:00,53.1,40.4,29.95,East,86,0.0,11.0,62,0.00,,---,0.00,VWS V14.01,2013-02-21 06:37:00,
2013-02-21 00:42:00,53.2,40.5,29.95,ESE,121,4.0,11.0,62,0.00,,---,0.00,VWS V14.01,2013-02-21 06:42:00,
2013-02-21 00:45:00,53.2,40.5,29.94,SE,125,0.0,11.0,62,0.00,,---,0.00,VWS V14.01,2013-02-21 06:45:00,
2013-02-21 00:47:00,52.8,40.6,29.94,East,91,0.0,9.0,63,0.00,,---,0.00,VWS V14.01,2013-02-21 06:47:00,
2013-02-21 00:52:00,52.6,40.0,29.94,East,101,4.0,9.0,62,0.00,,---,0.00,VWS V14.01,2013-02-21 06:52:00,
2013-02-21 00:57:00,52.8,40.2,29.94,SE,128,5.0,11.0,62,0.00,,---,0.00,VWS V14.01,2013-02-21 06:57:00,
2013-02-21 01:00:00,52.6,40.0,29.94,East,88,6.0,11.0,62,0.00,,---,0.00,VWS V14.01,2013-02-21 07:00:00,
2013-02-21 01:02:00,52.6,40.0,29.94,SE,129,0.0,7.0,62,0.00,,---,0.00,VWS V14.01,2013-02-21 07:02:00,
2013-02-21 01:08:00,52.8,39.7,29.94,East,82,1.0,7.0,61,0.00,,---,0.00,VWS V14.01,2013-02-21 07:08:00,
2013-02-21 01:13:00,52.6,40.0,29.94,ESE,117,0.0,7.0,62,0.00,,---,0.00,VWS V14.01,2013-02-21 07:13:00,
2013-02-21 01:15:00,52.8,40.2,29.94,ESE,121,0.0,7.0,62,0.00,,---,0.00,VWS V14.01,2013-02-21 07:15:00,
2013-02-21 01:18:00,52.6,40.0,29.94,ESE,103,1.0,9.0,62,0.00,,---,0.00,VWS V14.01,2013-02-21 07:18:00,
2013-02-21 01:23:00,52.5,39.9,29.94,ESE,113,3.0,9.0,62,0.00,,---,0.00,VWS V14.01,2013-02-21 07:23:00,
2013-02-21 01:28:00,52.5,39.5,29.94,ESE,115,0.0,13.0,61,0.00,,---,0.00,VWS V14.01,2013-02-21 07:28:00,
2013-02-21 01:30:00,52.5,39.5,29.92,ESE,103,11.0,13.0,61,0.00,,---,0.00,VWS V14.01,2013-02-21 07:30:00,
2013-02-21 01:33:00,52.5,39.9,29.92,SE,124,5.0,12.0,62,0.00,,---,0.00,VWS V14.01,2013-02-21 07:33:00,
2013-02-21 01:38:00,52.3,39.3,29.92,ESE,106,0.0,12.0,61,0.00,,---,0.00,VWS V14.01,2013-02-21 07:38:00,
2013-02-21 01:43:00,52.2,39.6,29.92,SE,128,5.0,12.0,62,0.00,,---,0.00,VWS V14.01,2013-02-21 07:43:00,
2013-02-21 01:45:00,52.3,39.3,29.92,ESE,115,0.0,12.0,61,0.00,,---,0.00,VWS V14.01,2013-02-21 07:45:00,
2013-02-21 01:48:00,52.2,39.6,29.92,ESE,108,2.0,10.0,62,0.00,,---,0.00,VWS V14.01,2013-02-21 07:48:00,
2013-02-21 01:53:00,52.0,39.4,29.92,East,84,2.0,10.0,62,0.00,,---,0.00,VWS V14.01,2013-02-21 07:53:00,
2013-02-21 01:58:00,52.0,39.8,29.91,SE,135,9.0,10.0,63,0.00,,---,0.00,VWS V14.01,2013-02-21 07:58:00,
2013-02-21 02:00:00,51.9,39.7,29.91,SE,139,0.0,10.0,63,0.00,,---,0.00,VWS V14.01,2013-02-21 08:00:00,
2013-02-21 02:04:00,51.9,39.7,29.91,SE,132,5.0,9.0,63,0.00,,---,0.00,VWS V14.01,2013-02-21 08:04:00,
2013-02-21 02:09:00,51.9,39.7,29.91,ESE,119,0.0,11.0,63,0.00,,---,0.00,VWS V14.01,2013-02-21 08:09:00,
2013-02-21 02:14:00,51.9,39.3,29.91,East,98,4.0,12.0,62,0.00,,---,0.00,VWS V14.01,2013-02-21 08:14:00,
2013-02-21 02:15:00,51.7,39.1,29.91,ESE,115,2.0,12.0,62,0.00,,---,0.00,VWS V14.01,2013-02-21 08:15:00,
2013-02-21 02:19:00,52.2,40.0,29.91,ESE,119,5.0,6.0,63,0.00,,---,0.00,VWS V14.01,2013-02-21 08:19:00,
2013-02-21 02:24:00,52.2,39.6,29.91,SE,143,6.0,12.0,62,0.00,,---,0.00,VWS V14.01,2013-02-21 08:24:00,
2013-02-21 02:29:00,52.2,39.6,29.90,SE,126,4.0,12.0,62,0.00,,---,0.00,VWS V14.01,2013-02-21 08:29:00,
2013-02-21 02:30:00,52.2,39.6,29.90,SE,126,4.0,12.0,62,0.00,,---,0.00,VWS V14.01,2013-02-21 08:30:00,
2013-02-21 02:34:00,51.9,39.3,29.90,ENE,77,0.0,9.0,62,0.00,,---,0.00,VWS V14.01,2013-02-21 08:34:00,
2013-02-21 02:39:00,51.7,39.1,29.90,ESE,117,10.0,12.0,62,0.00,,---,0.00,VWS V14.01,2013-02-21 08:39:00,
2013-02-21 02:44:00,51.9,39.3,29.89,ESE,105,3.0,3.0,62,0.00,,---,0.00,VWS V14.01,2013-02-21 08:44:00,
2013-02-21 02:45:00,51.9,39.3,29.89,SE,124,0.0,12.0,62,0.00,,---,0.00,VWS V14.01,2013-02-21 08:45:00,
2013-02-21 02:49:00,51.9,39.3,29.89,ESE,121,3.0,7.0,62,0.00,,---,0.00,VWS V14.01,2013-02-21 08:49:00,
2013-02-21 02:54:00,52.0,39.0,29.89,ESE,121,6.0,9.0,61,0.00,,---,0.00,VWS V14.01,2013-02-21 08:54:00,
2013-02-21 02:59:00,52.0,39.0,29.90,ESE,122,2.0,2.0,61,0.00,,---,0.00,VWS V14.01,2013-02-21 08:59:00,
2013-02-21 03:00:00,52.3,39.3,29.90,ESE,119,0.0,10.0,61,0.00,,---,0.00,VWS V14.01,2013-02-21 09:00:00,
2013-02-21 03:05:00,52.0,39.0,29.90,ESE,104,2.0,5.0,61,0.00,,---,0.00,VWS V14.01,2013-02-21 09:05:00,
2013-02-21 03:10:00,52.0,39.0,29.90,ESE,112,9.0,11.0,61,0.00,,---,0.00,VWS V14.01,2013-02-21 09:10:00,
2013-02-21 03:15:00,52.0,38.6,29.88,ESE,121,7.0,7.0,60,0.00,,---,0.00,VWS V14.01,2013-02-21 09:15:00,
2013-02-21 03:20:00,52.0,38.6,29.88,ESE,117,5.0,10.0,60,0.00,,---,0.00,VWS V14.01,2013-02-21 09:20:00,
2013-02-21 03:25:00,52.0,38.6,29.88,ESE,109,4.0,10.0,60,0.00,,---,0.00,VWS V14.01,2013-02-21 09:25:00,
2013-02-21 03:30:00,52.0,38.6,29.88,ESE,116,7.0,7.0,60,0.00,,---,0.00,VWS V14.01,2013-02-21 09:30:00,
2013-02-21 03:35:00,52.2,39.2,29.88,SE,128,12.0,12.0,61,0.00,,---,0.00,VWS V14.01,2013-02-21 09:35:00,
2013-02-21 03:40:00,52.2,38.8,29.88,East,96,4.0,12.0,60,0.00,,---,0.00,VWS V14.01,2013-02-21 09:40:00,
2013-02-21 03:45:00,52.3,38.8,29.88,ESE,111,3.0,12.0,60,0.00,,---,0.00,VWS V14.01,2013-02-21 09:45:00,
2013-02-21 03:46:00,52.3,38.8,29.88,ENE,69,4.0,7.0,60,0.00,,---,0.00,VWS V14.01,2013-02-21 09:46:00,
2013-02-21 03:51:00,52.3,38.8,29.88,SE,131,7.0,7.0,60,0.00,,---,0.00,VWS V14.01,2013-02-21 09:51:00,
2013-02-21 03:56:00,52.6,38.7,29.88,ESE,122,3.0,14.0,59,0.00,,---,0.00,VWS V14.01,2013-02-21 09:56:00,
2013-02-21 04:00:00,52.6,38.7,29.87,ESE,123,4.0,14.0,59,0.00,,---,0.00,VWS V14.01,2013-02-21 10:00:00,
2013-02-21 04:01:00,52.6,39.1,29.87,SE,136,4.0,9.0,60,0.00,,---,0.00,VWS V14.01,2013-02-21 10:01:00,
2013-02-21 04:06:00,52.9,39.0,29.87,ESE,109,3.0,9.0,59,0.00,,---,0.00,VWS V14.01,2013-02-21 10:06:00,
2013-02-21 04:11:00,53.1,39.6,29.87,ESE,107,3.0,9.0,60,0.00,,---,0.00,VWS V14.01,2013-02-21 10:11:00,
2013-02-21 04:15:00,53.1,39.2,29.87,ESE,107,2.0,9.0,59,0.00,,---,0.00,VWS V14.01,2013-02-21 10:15:00,
2013-02-21 04:16:00,53.1,39.2,29.87,ESE,113,2.0,6.0,59,0.00,,---,0.00,VWS V14.01,2013-02-21 10:16:00,
2013-02-21 04:21:00,53.2,39.3,29.87,East,81,4.0,10.0,59,0.00,,---,0.00,VWS V14.01,2013-02-21 10:21:00,
2013-02-21 04:26:00,53.2,39.3,29.87,SE,132,6.0,10.0,59,0.00,,---,0.00,VWS V14.01,2013-02-21 10:26:00,
2013-02-21 04:30:00,53.2,39.3,29.88,East,86,6.0,10.0,59,0.00,,---,0.00,VWS V14.01,2013-02-21 10:30:00,
2013-02-21 04:31:00,53.5,40.0,29.88,ESE,110,4.0,6.0,60,0.00,,---,0.00,VWS V14.01,2013-02-21 10:31:00,
2013-02-21 04:36:00,53.6,40.1,29.88,East,86,7.0,11.0,60,0.00,,---,0.00,VWS V14.01,2013-02-21 10:36:00,
2013-02-21 04:41:00,53.6,40.1,29.88,SE,144,5.0,11.0,60,0.00,,---,0.00,VWS V14.01,2013-02-21 10:41:00,
2013-02-21 04:45:00,53.8,40.7,29.87,ESE,109,0.0,11.0,61,0.00,,---,0.00,VWS V14.01,2013-02-21 10:45:00,
2013-02-21 04:46:00,53.5,40.4,29.87,ESE,118,5.0,12.0,61,0.00,,---,0.00,VWS V14.01,2013-02-21 10:46:00,
2013-02-21 04:51:00,53.6,40.1,29.87,SE,135,3.0,12.0,60,0.00,,---,0.00,VWS V14.01,2013-02-21 10:51:00,
2013-02-21 04:57:00,53.6,40.5,29.87,SE,146,6.0,12.0,61,0.00,,---,0.00,VWS V14.01,2013-02-21 10:57:00,
2013-02-21 05:00:00,53.8,40.3,29.88,East,96,4.0,12.0,60,0.00,,---,0.00,VWS V14.01,2013-02-21 11:00:00,
2013-02-21 05:02:00,53.8,40.7,29.88,East,81,4.0,9.0,61,0.00,,---,0.00,VWS V14.01,2013-02-21 11:02:00,
2013-02-21 05:07:00,53.9,40.3,29.88,SE,140,4.0,10.0,60,0.00,,---,0.00,VWS V14.01,2013-02-21 11:07:00,
2013-02-21 05:12:00,53.9,40.3,29.88,SE,126,6.0,12.0,60,0.00,,---,0.00,VWS V14.01,2013-02-21 11:12:00,
2013-02-21 05:15:00,54.1,40.5,29.88,ESE,118,6.0,12.0,60,0.00,,---,0.00,VWS V14.01,2013-02-21 11:15:00,
2013-02-21 05:17:00,53.9,40.3,29.88,SE,126,3.0,6.0,60,0.00,,---,0.00,VWS V14.01,2013-02-21 11:17:00,
2013-02-21 05:22:00,53.9,40.3,29.88,ESE,119,0.0,7.0,60,0.00,,---,0.00,VWS V14.01,2013-02-21 11:22:00,
2013-02-21 05:27:00,53.8,40.7,29.88,SE,139,0.0,7.0,61,0.00,,---,0.00,VWS V14.01,2013-02-21 11:27:00,
2013-02-21 05:30:00,53.8,40.7,29.88,ESE,115,4.0,7.0,61,0.00,,---,0.00,VWS V14.01,2013-02-21 11:30:00,
2013-02-21 05:32:00,53.9,40.8,29.88,SE,140,5.0,7.0,61,0.00,,---,0.00,VWS V14.01,2013-02-21 11:32:00,
2013-02-21 05:37:00,53.9,41.2,29.88,ESE,111,5.0,10.0,62,0.00,,---,0.00,VWS V14.01,2013-02-21 11:37:00,
2013-02-21 05:42:00,54.1,41.0,29.88,SE,131,1.0,10.0,61,0.00,,---,0.00,VWS V14.01,2013-02-21 11:42:00,
2013-02-21 05:45:00,54.1,41.4,29.88,SE,131,0.0,10.0,62,0.00,,---,0.00,VWS V14.01,2013-02-21 11:45:00,
2013-02-21 05:47:00,54.2,41.9,29.88,SE,146,5.0,11.0,63,0.00,,---,0.00,VWS V14.01,2013-02-21 11:47:00,
2013-02-21 05:52:00,54.7,42.0,29.88,SE,130,0.0,17.0,62,0.00,,---,0.00,VWS V14.01,2013-02-21 11:52:00,
2013-02-21 05:57:00,54.5,41.8,29.88,SE,146,9.0,17.0,62,0.00,,---,0.00,VWS V14.01,2013-02-21 11:57:00,
2013-02-21 06:00:00,54.5,41.8,29.89,SSE,153,4.0,17.0,62,0.00,,---,0.00,VWS V14.01,2013-02-21 12:00:00,
2013-02-21 06:02:00,54.5,41.8,29.89,SSE,149,6.0,9.0,62,0.00,,---,0.00,VWS V14.01,2013-02-21 12:02:00,
2013-02-21 06:07:00,54.5,41.8,29.89,SE,136,2.0,9.0,62,0.00,,---,0.00,VWS V14.01,2013-02-21 12:07:00,
2013-02-21 06:13:00,54.5,41.8,29.89,SE,136,10.0,10.0,62,0.00,,---,0.00,VWS V14.01,2013-02-21 12:13:00,
2013-02-21 06:15:00,54.5,41.8,29.89,SSE,147,0.0,10.0,62,0.00,,---,0.00,VWS V14.01,2013-02-21 12:15:00,
2013-02-21 06:18:00,54.5,42.2,29.89,ESE,118,0.0,8.0,63,0.00,,---,0.00,VWS V14.01,2013-02-21 12:18:00,
2013-02-21 06:23:00,54.5,42.2,29.89,SE,135,0.0,8.0,63,0.00,,---,0.00,VWS V14.01,2013-02-21 12:23:00,
2013-02-21 06:28:00,54.5,42.2,29.89,SE,130,0.0,8.0,63,0.00,,---,0.00,VWS V14.01,2013-02-21 12:28:00,
2013-02-21 06:30:00,54.8,42.5,29.89,SE,130,0.0,8.0,63,0.00,,---,0.00,VWS V14.01,2013-02-21 12:30:00,
2013-02-21 06:33:00,54.7,42.8,29.89,SE,138,5.0,7.0,64,0.00,,---,0.00,VWS V14.01,2013-02-21 12:33:00,
2013-02-21 06:38:00,54.8,42.9,29.89,ESE,117,6.0,10.0,64,0.00,,---,0.00,VWS V14.01,2013-02-21 12:38:00,
2013-02-21 06:43:00,54.8,42.9,29.89,SE,143,3.0,10.0,64,0.00,,---,0.00,VWS V14.01,2013-02-21 12:43:00,
2013-02-21 06:45:00,55.0,43.1,29.89,ESE,104,5.0,10.0,64,0.00,,---,0.00,VWS V14.01,2013-02-21 12:45:00,
2013-02-21 06:48:00,55.0,43.1,29.89,ESE,106,7.0,9.0,64,0.00,,---,0.00,VWS V14.01,2013-02-21 12:48:00,
2013-02-21 06:53:00,55.0,43.1,29.89,ESE,104,3.0,10.0,64,0.00,,---,0.00,VWS V14.01,2013-02-21 12:53:00,
2013-02-21 06:58:00,55.1,43.6,29.89,SSE,148,3.0,10.0,65,0.00,,---,0.00,VWS V14.01,2013-02-21 12:58:00,
2013-02-21 07:00:00,55.4,43.8,29.89,SE,140,0.0,10.0,65,0.00,,---,0.00,VWS V14.01,2013-02-21 13:00:00,
2013-02-21 07:03:00,55.4,43.8,29.89,ESE,120,0.0,10.0,65,0.00,,---,0.00,VWS V14.01,2013-02-21 13:03:00,
2013-02-21 07:08:00,55.3,43.8,29.89,ESE,115,5.0,12.0,65,0.00,,---,0.00,VWS V14.01,2013-02-21 13:08:00,
2013-02-21 07:13:00,55.6,44.0,29.88,SE,129,1.0,12.0,65,0.00,,---,0.00,VWS V14.01,2013-02-21 13:13:00,
2013-02-21 07:15:00,55.3,43.8,29.88,ESE,102,2.0,12.0,65,0.00,,---,0.00,VWS V14.01,2013-02-21 13:15:00,
2013-02-21 07:19:00,55.7,44.1,29.88,SE,135,11.0,13.0,65,0.00,,---,0.00,VWS V14.01,2013-02-21 13:19:00,
2013-02-21 07:24:00,55.9,44.3,29.88,SSE,148,7.0,13.0,65,0.00,,---,0.00,VWS V14.01,2013-02-21 13:24:00,
2013-02-21 07:29:00,56.2,46.2,29.89,SE,126,5.0,13.0,69,0.00,,---,0.00,VWS V14.01,2013-02-21 13:29:00,
2013-02-21 07:30:00,55.9,44.7,29.89,East,100,3.0,13.0,66,0.00,,---,0.00,VWS V14.01,2013-02-21 13:30:00,
2013-02-21 07:34:00,56.0,44.8,29.89,SE,131,4.0,10.0,66,0.00,,---,0.00,VWS V14.01,2013-02-21 13:34:00,
2013-02-21 07:39:00,56.3,45.1,29.89,ESE,122,3.0,14.0,66,0.00,,---,0.00,VWS V14.01,2013-02-21 13:39:00,
2013-02-21 07:44:00,56.6,45.8,29.89,ESE,119,3.0,14.0,67,0.00,,---,0.00,VWS V14.01,2013-02-21 13:44:00,
2013-02-21 07:45:00,56.6,45.8,29.89,ESE,119,3.0,14.0,67,0.00,,---,0.00,VWS V14.01,2013-02-21 13:45:00,
2013-02-21 07:49:00,56.7,45.9,29.89,SSE,156,3.0,11.0,67,0.00,,---,0.00,VWS V14.01,2013-02-21 13:49:00,
2013-02-21 07:54:00,56.9,46.1,29.89,SE,130,4.0,11.0,67,0.00,,---,0.00,VWS V14.01,2013-02-21 13:54:00,
2013-02-21 07:59:00,56.7,45.5,29.89,SE,143,10.0,13.0,66,0.00,,---,0.00,VWS V14.01,2013-02-21 13:59:00,
2013-02-21 08:00:00,56.9,45.7,29.89,East,99,10.0,17.0,66,0.00,,---,0.00,VWS V14.01,2013-02-21 14:00:00,
2013-02-21 08:04:00,56.7,45.9,29.89,SSE,156,8.0,13.0,67,0.00,,---,0.00,VWS V14.01,2013-02-21 14:04:00,
2013-02-21 08:09:00,56.7,45.9,29.89,SSE,152,5.0,13.0,67,0.00,,---,0.00,VWS V14.01,2013-02-21 14:09:00,
2013-02-21 08:14:00,56.7,45.9,29.89,SE,135,4.0,9.0,67,0.00,,---,0.00,VWS V14.01,2013-02-21 14:14:00,
2013-02-21 08:15:00,56.6,46.2,29.89,SE,137,5.0,13.0,68,0.00,,---,0.00,VWS V14.01,2013-02-21 14:15:00,
2013-02-21 08:19:00,57.0,46.6,29.89,SSE,156,6.0,10.0,68,0.00,,---,0.00,VWS V14.01,2013-02-21 14:19:00,
2013-02-21 08:24:00,57.2,46.8,29.89,SE,144,9.0,17.0,68,0.00,,---,0.00,VWS V14.01,2013-02-21 14:24:00,
2013-02-21 08:29:00,57.3,46.8,29.89,SSE,151,2.0,6.0,68,0.00,,---,0.00,VWS V14.01,2013-02-21 14:29:00,
2013-02-21 08:30:00,57.0,46.6,29.89,SE,135,6.0,17.0,68,0.00,,---,0.00,VWS V14.01,2013-02-21 14:30:00,
2013-02-21 08:34:00,57.5,47.4,29.89,ESE,119,3.0,13.0,69,0.00,,---,0.00,VWS V14.01,2013-02-21 14:34:00,
2013-02-21 08:40:00,57.6,47.5,29.89,SE,124,6.0,13.0,69,0.00,,---,0.00,VWS V14.01,2013-02-21 14:40:00,
2013-02-21 08:45:00,57.5,47.4,29.88,SE,133,6.0,10.0,69,0.00,,---,0.00,VWS V14.01,2013-02-21 14:45:00,
2013-02-21 08:50:00,57.8,48.1,29.88,SE,145,4.0,12.0,70,0.00,,---,0.00,VWS V14.01,2013-02-21 14:50:00,
2013-02-21 08:55:00,58.0,48.3,29.88,SE,142,3.0,12.0,70,0.00,,---,0.00,VWS V14.01,2013-02-21 14:55:00,
2013-02-21 09:00:00,58.3,48.6,29.88,SE,136,5.0,7.0,70,0.00,,---,0.00,VWS V14.01,2013-02-21 15:00:00,
2013-02-21 09:05:00,58.4,48.7,29.88,SSE,155,6.0,14.0,70,0.00,,---,0.00,VWS V14.01,2013-02-21 15:05:00,
2013-02-21 09:10:00,58.4,48.7,29.88,SE,136,5.0,14.0,70,0.00,,---,0.00,VWS V14.01,2013-02-21 15:10:00,
2013-02-21 09:15:00,58.6,49.2,29.88,SSE,148,2.0,6.0,71,0.00,,---,0.00,VWS V14.01,2013-02-21 15:15:00,
2013-02-21 09:20:00,59.0,49.6,29.88,SE,138,6.0,13.0,71,0.00,,---,0.00,VWS V14.01,2013-02-21 15:20:00,
2013-02-21 09:25:00,59.2,49.8,29.88,SE,124,5.0,18.0,71,0.00,,---,0.00,VWS V14.01,2013-02-21 15:25:00,
2013-02-21 09:30:00,59.0,50.0,29.87,SSE,152,5.0,10.0,72,0.00,,---,0.00,VWS V14.01,2013-02-21 15:30:00,
2013-02-21 09:35:00,59.3,50.3,29.87,SSE,161,3.0,15.0,72,0.00,,---,0.00,VWS V14.01,2013-02-21 15:35:00,
2013-02-21 09:40:00,59.8,50.4,29.87,SSE,163,2.0,20.0,71,0.00,,---,0.00,VWS V14.01,2013-02-21 15:40:00,
2013-02-21 09:45:00,59.8,50.4,29.86,SE,143,5.0,6.0,71,0.00,,---,0.00,VWS V14.01,2013-02-21 15:45:00,
2013-02-21 09:50:00,60.1,50.7,29.86,SSE,148,6.0,16.0,71,0.00,,---,0.00,VWS V14.01,2013-02-21 15:50:00,
2013-02-21 09:55:00,60.4,51.0,29.86,SE,138,6.0,16.0,71,0.00,,---,0.00,VWS V14.01,2013-02-21 15:55:00,
2013-02-21 10:00:00,60.9,51.8,29.86,South,178,7.0,9.0,72,0.00,,---,0.00,VWS V14.01,2013-02-21 16:00:00,
2013-02-21 10:05:00,61.3,52.2,29.86,SE,139,0.0,16.0,72,0.00,,---,0.00,VWS V14.01,2013-02-21 16:05:00,
2013-02-21 10:10:00,61.5,52.4,29.86,SE,132,13.0,16.0,72,0.00,,---,0.00,VWS V14.01,2013-02-21 16:10:00,
2013-02-21 10:15:00,61.8,52.7,29.86,ESE,113,4.0,15.0,72,0.00,,---,0.00,VWS V14.01,2013-02-21 16:15:00,
2013-02-21 10:20:00,62.0,53.3,29.86,East,99,10.0,17.0,73,0.00,,---,0.00,VWS V14.01,2013-02-21 16:20:00,
2013-02-21 10:25:00,62.1,53.3,29.86,SE,135,4.0,17.0,73,0.00,,---,0.00,VWS V14.01,2013-02-21 16:25:00,
2013-02-21 10:30:00,62.4,54.0,29.84,SE,134,10.0,11.0,74,0.00,,---,0.00,VWS V14.01,2013-02-21 16:30:00,
2013-02-21 10:35:00,62.7,54.3,29.84,SSE,151,3.0,16.0,74,0.00,,---,0.00,VWS V14.01,2013-02-21 16:35:00,
2013-02-21 10:40:00,63.2,54.8,29.84,SE,127,6.0,16.0,74,0.00,,---,0.00,VWS V14.01,2013-02-21 16:40:00,
2013-02-21 10:45:00,63.7,55.3,29.83,SE,146,4.0,16.0,74,0.00,,---,0.00,VWS V14.01,2013-02-21 16:45:00,
2013-02-21 10:46:00,63.9,55.1,29.83,ESE,120,5.0,15.0,73,0.00,,---,0.00,VWS V14.01,2013-02-21 16:46:00,
2013-02-21 10:51:00,64.0,55.6,29.83,SE,135,9.0,19.0,74,0.00,,---,0.00,VWS V14.01,2013-02-21 16:51:00,
2013-02-21 10:56:00,64.2,55.8,29.83,South,172,3.0,19.0,74,0.00,,---,0.00,VWS V14.01,2013-02-21 16:56:00,
2013-02-21 11:00:00,64.8,56.7,29.83,SSE,165,2.0,22.0,75,0.00,,---,0.00,VWS V14.01,2013-02-21 17:00:00,
2013-02-21 11:01:00,64.5,56.4,29.83,SSE,160,5.0,12.0,75,0.00,,---,0.00,VWS V14.01,2013-02-21 17:01:00,
2013-02-21 11:06:00,64.8,57.1,29.83,SSE,155,4.0,13.0,76,0.00,,---,0.00,VWS V14.01,2013-02-21 17:06:00,
2013-02-21 11:11:00,65.2,57.5,29.83,SE,135,5.0,13.0,76,0.00,,---,0.00,VWS V14.01,2013-02-21 17:11:00,
2013-02-21 11:15:00,65.2,57.8,29.83,SE,132,6.0,17.0,77,0.00,,---,0.00,VWS V14.01,2013-02-21 17:15:00,
2013-02-21 11:16:00,65.3,57.9,29.83,South,173,10.0,10.0,77,0.00,,---,0.00,VWS V14.01,2013-02-21 17:16:00,
2013-02-21 11:21:00,65.5,58.1,29.83,SE,138,0.0,10.0,77,0.00,,---,0.00,VWS V14.01,2013-02-21 17:21:00,
2013-02-21 11:26:00,66.0,59.0,29.83,SSE,156,2.0,14.0,78,0.00,,---,0.00,VWS V14.01,2013-02-21 17:26:00,
2013-02-21 11:30:00,66.0,59.0,29.82,SSE,150,2.0,14.0,78,0.00,,---,0.00,VWS V14.01,2013-02-21 17:30:00,
2013-02-21 11:31:00,66.3,59.2,29.82,SSE,153,0.0,7.0,78,0.00,,---,0.00,VWS V14.01,2013-02-21 17:31:00,
2013-02-21 11:36:00,66.6,59.5,29.82,ESE,107,5.0,15.0,78,0.00,,---,0.00,VWS V14.01,2013-02-21 17:36:00,
2013-02-21 11:42:00,66.9,59.8,29.82,SSE,158,6.0,15.0,78,0.00,,---,0.00,VWS V14.01,2013-02-21 17:42:00,
2013-02-21 11:45:00,66.6,59.5,29.80,SSE,157,5.0,15.0,78,0.00,,---,0.00,VWS V14.01,2013-02-21 17:45:00,
2013-02-21 11:47:00,67.1,60.0,29.80,SSE,158,6.0,12.0,78,0.00,,---,0.00,VWS V14.01,2013-02-21 17:47:00,
2013-02-21 11:52:00,67.1,60.0,29.80,SSE,150,7.0,14.0,78,0.00,,---,0.00,VWS V14.01,2013-02-21 17:52:00,
2013-02-21 11:57:00,67.4,60.3,29.80,SSE,161,2.0,14.0,78,0.00,,---,0.00,VWS V14.01,2013-02-21 17:57:00,
2013-02-21 12:00:00,67.6,60.5,29.79,South,178,9.0,14.0,78,0.00,,---,0.00,VWS V14.01,2013-02-21 18:00:00,
2013-02-21 12:02:00,67.9,61.2,29.79,South,179,6.0,10.0,79,0.00,,---,0.00,VWS V14.01,2013-02-21 18:02:00,
2013-02-21 12:07:00,68.3,61.2,29.79,SSE,150,4.0,15.0,78,0.00,,---,0.00,VWS V14.01,2013-02-21 18:07:00,
2013-02-21 12:12:00,68.3,61.2,29.79,ESE,123,5.0,15.0,78,0.00,,---,0.00,VWS V14.01,2013-02-21 18:12:00,
2013-02-21 12:15:00,68.1,61.0,29.78,SE,146,4.0,15.0,78,0.00,,---,0.00,VWS V14.01,2013-02-21 18:15:00,
2013-02-21 12:17:00,67.9,60.8,29.78,SSE,147,5.0,14.0,78,0.00,,---,0.00,VWS V14.01,2013-02-21 18:17:00,
2013-02-21 12:22:00,67.8,61.1,29.78,SSE,150,5.0,18.0,79,0.00,,---,0.00,VWS V14.01,2013-02-21 18:22:00,
2013-02-21 12:27:00,67.6,61.2,29.78,SE,144,7.0,18.0,80,0.00,,---,0.00,VWS V14.01,2013-02-21 18:27:00,
2013-02-21 12:30:00,67.4,61.0,29.77,SE,141,7.0,18.0,80,0.00,,---,0.00,VWS V14.01,2013-02-21 18:30:00,
2013-02-21 12:32:00,67.4,61.4,29.77,SSE,147,7.0,14.0,81,0.00,,---,0.00,VWS V14.01,2013-02-21 18:32:00,
2013-02-21 12:37:00,67.6,61.6,29.77,SE,140,5.0,14.0,81,0.00,,---,0.00,VWS V14.01,2013-02-21 18:37:00,
2013-02-21 12:42:00,67.4,61.4,29.77,SSE,154,6.0,16.0,81,0.00,,---,0.00,VWS V14.01,2013-02-21 18:42:00,
2013-02-21 12:45:00,67.4,61.7,29.75,SE,145,6.0,16.0,82,0.00,,---,0.00,VWS V14.01,2013-02-21 18:45:00,
2013-02-21 12:47:00,67.4,61.7,29.75,SE,143,6.0,17.0,82,0.00,,---,0.00,VWS V14.01,2013-02-21 18:47:00,
2013-02-21 12:52:00,67.3,62.0,29.75,SE,140,10.0,17.0,83,0.00,,---,0.00,VWS V14.01,2013-02-21 18:52:00,
2013-02-21 12:58:00,67.1,62.5,29.75,ESE,122,5.0,17.0,85,0.01,,---,0.01,VWS V14.01,2013-02-21 18:58:00,
2013-02-21 13:00:00,64.8,63.3,29.70,SSE,150,0.0,10.0,95,0.06,,---,0.06,VWS V14.01,2013-02-21 19:00:00,
2013-02-21 13:03:00,66.4,62.4,29.74,SE,144,10.0,12.0,87,0.01,,---,0.01,VWS V14.01,2013-02-21 19:03:00,
2013-02-21 13:08:00,65.8,62.5,29.74,ESE,121,2.0,12.0,89,0.01,,---,0.01,VWS V14.01,2013-02-21 19:08:00,
2013-02-21 13:13:00,65.6,62.6,29.74,SSE,165,4.0,12.0,90,0.02,,---,0.02,VWS V14.01,2013-02-21 19:13:00,
2013-02-21 13:15:00,65.6,62.9,29.72,SE,126,6.0,12.0,91,0.02,,---,0.02,VWS V14.01,2013-02-21 19:15:00,
2013-02-21 13:18:00,65.2,62.5,29.72,SE,141,6.0,10.0,91,0.03,,---,0.03,VWS V14.01,2013-02-21 19:18:00,
2013-02-21 13:23:00,65.0,62.6,29.72,SE,140,5.0,10.0,92,0.03,,---,0.03,VWS V14.01,2013-02-21 19:23:00,
2013-02-21 13:28:00,65.0,62.9,29.72,SSE,154,5.0,10.0,93,0.03,,---,0.03,VWS V14.01,2013-02-21 19:28:00,
2013-02-21 13:30:00,64.8,62.7,29.72,SE,142,5.0,10.0,93,0.04,,---,0.04,VWS V14.01,2013-02-21 19:30:00,
2013-02-21 13:33:00,64.8,62.7,29.72,SSE,150,8.0,11.0,93,0.04,,---,0.04,VWS V14.01,2013-02-21 19:33:00,
2013-02-21 13:38:00,64.7,62.6,29.72,SE,134,5.0,14.0,93,0.04,,---,0.04,VWS V14.01,2013-02-21 19:38:00,
2013-02-21 13:43:00,64.7,62.9,29.71,South,173,0.0,16.0,94,0.05,,---,0.05,VWS V14.01,2013-02-21 19:43:00,
2013-02-21 13:45:00,65.5,64.6,29.68,SE,130,12.0,13.0,97,0.13,,---,0.17,VWS V14.01,2013-02-21 19:45:00,
2013-02-21 13:48:00,64.7,62.9,29.71,SSE,161,5.0,10.0,94,0.05,,---,0.05,VWS V14.01,2013-02-21 19:48:00,
2013-02-21 13:53:00,64.8,63.3,29.71,South,182,6.0,10.0,95,0.06,,---,0.06,VWS V14.01,2013-02-21 19:53:00,
2013-02-21 13:58:00,64.8,63.3,29.70,South,170,0.0,10.0,95,0.06,,---,0.06,VWS V14.01,2013-02-21 19:58:00,
2013-02-21 14:00:00,64.8,63.3,29.70,SSE,150,0.0,10.0,95,0.06,,---,0.06,VWS V14.01,2013-02-21 20:00:00,
2013-02-21 14:03:00,65.3,63.8,29.70,SE,139,7.0,11.0,95,0.05,,---,0.06,VWS V14.01,2013-02-21 20:03:00,
2013-02-21 14:09:00,65.5,64.3,29.70,South,169,5.0,11.0,96,0.06,,---,0.07,VWS V14.01,2013-02-21 20:09:00,
2013-02-21 14:14:00,65.2,64.0,29.69,SSE,155,9.0,12.0,96,0.07,,---,0.08,VWS V14.01,2013-02-21 20:14:00,
2013-02-21 14:15:00,65.2,64.0,29.69,SE,128,6.0,12.0,96,0.07,,---,0.08,VWS V14.01,2013-02-21 20:15:00,
2013-02-21 14:19:00,65.2,64.0,29.69,SE,137,6.0,11.0,96,0.08,,---,0.10,VWS V14.01,2013-02-21 20:19:00,
2013-02-21 14:24:00,65.2,64.0,29.69,South,171,3.0,12.0,96,0.09,,---,0.11,VWS V14.01,2013-02-21 20:24:00,
2013-02-21 14:29:00,65.2,64.0,29.68,South,184,2.0,12.0,96,0.11,,---,0.13,VWS V14.01,2013-02-21 20:29:00,
2013-02-21 14:30:00,65.2,64.0,29.68,South,184,2.0,12.0,96,0.11,,---,0.13,VWS V14.01,2013-02-21 20:30:00,
2013-02-21 14:34:00,65.2,64.0,29.68,SSE,165,0.0,4.0,96,0.10,,---,0.15,VWS V14.01,2013-02-21 20:34:00,
2013-02-21 14:39:00,65.3,64.4,29.68,SE,131,6.0,8.0,97,0.12,,---,0.16,VWS V14.01,2013-02-21 20:39:00,
2013-02-21 14:44:00,65.3,64.4,29.68,SE,130,6.0,12.0,97,0.12,,---,0.17,VWS V14.01,2013-02-21 20:44:00,
2013-02-21 14:45:00,65.5,64.6,29.68,SE,130,12.0,13.0,97,0.13,,---,0.17,VWS V14.01,2013-02-21 20:45:00,
2013-02-21 14:49:00,65.5,64.6,29.68,SSE,155,3.0,12.0,97,0.12,,---,0.17,VWS V14.01,2013-02-21 20:49:00,
2013-02-21 14:54:00,65.8,64.9,29.68,South,180,5.0,12.0,97,0.12,,---,0.17,VWS V14.01,2013-02-21 20:54:00,
2013-02-21 14:59:00,66.0,65.1,29.68,South,172,9.0,14.0,97,0.11,,---,0.17,VWS V14.01,2013-02-21 20:59:00,
2013-02-21 15:00:00,66.3,65.4,29.68,South,179,14.0,14.0,97,0.12,,---,0.17,VWS V14.01,2013-02-21 21:00:00,
2013-02-21 15:04:00,66.1,65.2,29.68,SE,143,5.0,14.0,97,0.11,,---,0.17,VWS V14.01,2013-02-21 21:04:00,
2013-02-21 15:09:00,66.4,65.8,29.68,SSE,157,5.0,14.0,98,0.11,,---,0.17,VWS V14.01,2013-02-21 21:09:00,
2013-02-21 15:14:00,66.3,65.7,29.67,South,179,5.0,9.0,98,0.09,,---,0.17,VWS V14.01,2013-02-21 21:14:00,
2013-02-21 15:15:00,66.3,65.7,29.67,South,171,9.0,14.0,98,0.11,,---,0.17,VWS V14.01,2013-02-21 21:15:00,
2013-02-21 15:19:00,66.4,65.8,29.67,SSE,151,4.0,10.0,98,0.09,,---,0.17,VWS V14.01,2013-02-21 21:19:00,
2013-02-21 15:24:00,66.6,66.0,29.67,South,182,10.0,14.0,98,0.09,,---,0.17,VWS V14.01,2013-02-21 21:24:00,
2013-02-21 15:29:00,66.6,66.0,29.67,SSE,166,0.0,0.0,98,0.04,,---,0.17,VWS V14.01,2013-02-21 21:29:00,
2013-02-21 15:30:00,66.8,66.2,29.67,SSE,161,0.0,14.0,98,0.09,,---,0.17,VWS V14.01,2013-02-21 21:30:00,
2013-02-21 15:34:00,66.9,66.3,29.67,South,184,8.0,14.0,98,0.04,,---,0.17,VWS V14.01,2013-02-21 21:34:00,
2013-02-21 15:39:00,67.1,66.5,29.67,SSE,163,2.0,14.0,98,0.04,,---,0.17,VWS V14.01,2013-02-21 21:39:00,
2013-02-21 15:44:00,67.6,67.0,29.67,SSE,153,0.0,0.0,98,0.00,,---,0.17,VWS V14.01,2013-02-21 21:44:00,
2013-02-21 15:45:00,67.1,66.5,29.67,SSE,160,0.0,14.0,98,0.04,,---,0.17,VWS V14.01,2013-02-21 21:45:00,
2013-02-21 15:49:00,67.8,67.2,29.67,South,173,6.0,11.0,98,0.00,,---,0.17,VWS V14.01,2013-02-21 21:49:00,
2013-02-21 15:54:00,67.6,67.0,29.67,South,175,0.0,12.0,98,0.00,,---,0.17,VWS V14.01,2013-02-21 21:54:00,
2013-02-21 15:59:00,67.9,67.3,29.67,SSE,158,3.0,11.0,98,0.00,,---,0.17,VWS V14.01,2013-02-21 21:59:00,
2013-02-21 16:00:00,67.8,67.2,29.67,South,181,11.0,12.0,98,0.00,,---,0.17,VWS V14.01,2013-02-21 22:00:00,
2013-02-21 16:04:00,68.1,67.5,29.67,South,171,2.0,11.0,98,0.00,,---,0.17,VWS V14.01,2013-02-21 22:04:00,
2013-02-21 16:09:00,68.4,67.8,29.67,South,178,5.0,11.0,98,0.00,,---,0.17,VWS V14.01,2013-02-21 22:09:00,
2013-02-21 16:14:00,68.8,68.5,29.67,South,179,5.0,10.0,99,0.01,,---,0.18,VWS V14.01,2013-02-21 22:14:00,
2013-02-21 16:15:00,68.8,68.5,29.67,SSE,163,4.0,11.0,99,0.01,,---,0.18,VWS V14.01,2013-02-21 22:15:00,
2013-02-21 16:19:00,69.3,69.0,29.67,South,190,6.0,15.0,99,0.01,,---,0.18,VWS V14.01,2013-02-21 22:19:00,
2013-02-21 16:24:00,70.1,69.8,29.67,SSW,198,14.0,17.0,99,0.01,,---,0.18,VWS V14.01,2013-02-21 22:24:00,
2013-02-21 16:29:00,70.3,69.7,29.67,South,183,11.0,11.0,98,0.01,,---,0.18,VWS V14.01,2013-02-21 22:29:00,
2013-02-21 16:30:00,70.3,69.7,29.67,SW,235,5.0,17.0,98,0.01,,---,0.18,VWS V14.01,2013-02-21 22:30:00,
2013-02-21 16:34:00,71.1,70.5,29.67,South,190,7.0,21.0,98,0.01,,---,0.18,VWS V14.01,2013-02-21 22:34:00,
2013-02-21 16:39:00,71.5,70.6,29.67,SSW,195,7.0,23.0,97,0.01,,---,0.18,VWS V14.01,2013-02-21 22:39:00,
2013-02-21 16:44:00,71.8,70.6,29.68,SW,214,12.0,14.0,96,0.01,,---,0.18,VWS V14.01,2013-02-21 22:44:00,
2013-02-21 16:45:00,72.1,70.9,29.68,SSW,195,7.0,23.0,96,0.01,,---,0.18,VWS V14.01,2013-02-21 22:45:00,
2013-02-21 16:49:00,72.0,70.5,29.68,SSW,201,19.0,24.0,95,0.01,,---,0.18,VWS V14.01,2013-02-21 22:49:00,
2013-02-21 16:54:00,72.3,70.5,29.68,SSW,211,28.0,28.0,94,0.01,,---,0.18,VWS V14.01,2013-02-21 22:54:00,
2013-02-21 16:59:00,72.5,70.4,29.68,SSW,194,12.0,12.0,93,0.01,,---,0.18,VWS V14.01,2013-02-21 22:59:00,
2013-02-21 17:00:00,72.3,70.2,29.68,SW,235,12.0,28.0,93,0.01,,---,0.18,VWS V14.01,2013-02-21 23:00:00,
2013-02-21 17:05:00,72.5,70.1,29.68,SSW,193,10.0,22.0,92,0.01,,---,0.18,VWS V14.01,2013-02-21 23:05:00,
2013-02-21 17:10:00,72.8,70.3,29.68,SSW,199,14.0,29.0,92,0.01,,---,0.18,VWS V14.01,2013-02-21 23:10:00,
2013-02-21 17:15:00,72.8,70.3,29.69,SSW,192,10.0,10.0,92,0.00,,---,0.18,VWS V14.01,2013-02-21 23:15:00,
2013-02-21 17:20:00,72.8,70.3,29.69,South,184,11.0,23.0,92,0.00,,---,0.18,VWS V14.01,2013-02-21 23:20:00,
2013-02-21 17:25:00,72.5,70.1,29.69,South,173,5.0,23.0,92,0.00,,---,0.18,VWS V14.01,2013-02-21 23:25:00,
2013-02-21 17:30:00,72.5,70.1,29.69,SSW,200,9.0,16.0,92,0.01,,---,0.19,VWS V14.01,2013-02-21 23:30:00,
2013-02-21 17:35:00,72.7,70.2,29.69,SSW,200,10.0,23.0,92,0.01,,---,0.19,VWS V14.01,2013-02-21 23:35:00,
2013-02-21 17:40:00,72.7,70.2,29.69,SSW,205,16.0,23.0,92,0.01,,---,0.19,VWS V14.01,2013-02-21 23:40:00,
2013-02-21 17:45:00,72.7,70.2,29.70,SSW,209,13.0,13.0,92,0.01,,---,0.19,VWS V14.01,2013-02-21 23:45:00,
2013-02-21 17:50:00,72.7,69.9,29.70,SW,227,5.0,17.0,91,0.01,,---,0.19,VWS V14.01,2013-02-21 23:50:00,
2013-02-21 17:55:00,72.7,69.9,29.70,SSW,196,8.0,17.0,91,0.01,,---,0.19,VWS V14.01,2013-02-21 23:55:00,
2013-02-21 18:00:00,72.8,70.0,29.70,South,176,16.0,16.0,91,0.01,,---,0.19,VWS V14.01,2013-02-22 00:00:00,
2013-02-21 18:05:00,73.3,70.5,29.70,SSW,209,21.0,21.0,91,0.01,,---,0.19,VWS V14.01,2013-02-22 00:05:00,
2013-02-21 18:10:00,73.5,70.4,29.70,South,188,18.0,25.0,90,0.01,,---,0.19,VWS V14.01,2013-02-22 00:10:00,
2013-02-21 18:15:00,73.5,70.4,29.71,South,189,9.0,17.0,90,0.01,,---,0.19,VWS V14.01,2013-02-22 00:15:00,
2013-02-21 18:20:00,73.5,70.4,29.71,SSW,192,7.0,17.0,90,0.01,,---,0.19,VWS V14.01,2013-02-22 00:20:00,
2013-02-21 18:25:00,73.2,70.1,29.71,SSW,209,9.0,17.0,90,0.01,,---,0.19,VWS V14.01,2013-02-22 00:25:00,
2013-02-21 18:30:00,73.2,70.1,29.72,SSW,207,4.0,10.0,90,0.00,,---,0.19,VWS V14.01,2013-02-22 00:30:00,
2013-02-21 18:36:00,73.2,70.1,29.72,SSW,207,10.0,20.0,90,0.00,,---,0.19,VWS V14.01,2013-02-22 00:36:00,
2013-02-21 18:41:00,73.2,70.1,29.72,WSW,237,11.0,20.0,90,0.00,,---,0.19,VWS V14.01,2013-02-22 00:41:00,
2013-02-21 18:45:00,73.2,70.1,29.72,WSW,249,7.0,20.0,90,0.00,,---,0.19,VWS V14.01,2013-02-22 00:45:00,
2013-02-21 18:46:00,73.2,70.1,29.72,WSW,238,6.0,11.0,90,0.00,,---,0.19,VWS V14.01,2013-02-22 00:46:00,
2013-02-21 18:51:00,73.2,70.1,29.72,WSW,237,5.0,18.0,90,0.00,,---,0.19,VWS V14.01,2013-02-22 00:51:00,
2013-02-21 18:56:00,73.2,70.1,29.72,SSW,208,4.0,20.0,90,0.00,,---,0.19,VWS V14.01,2013-02-22 00:56:00,
2013-02-21 19:00:00,73.5,70.4,29.72,South,187,9.0,20.0,90,0.00,,---,0.19,VWS V14.01,2013-02-22 01:00:00,
2013-02-21 19:01:00,73.0,69.9,29.72,SW,229,6.0,16.0,90,0.00,,---,0.19,VWS V14.01,2013-02-22 01:01:00,
2013-02-21 19:06:00,73.0,69.9,29.72,SSW,200,11.0,16.0,90,0.00,,---,0.19,VWS V14.01,2013-02-22 01:06:00,
2013-02-21 19:11:00,73.3,70.5,29.72,SW,217,6.0,17.0,91,0.00,,---,0.19,VWS V14.01,2013-02-22 01:11:00,
2013-02-21 19:15:00,72.8,70.0,29.73,SW,235,3.0,17.0,91,0.00,,---,0.19,VWS V14.01,2013-02-22 01:15:00,
2013-02-21 19:16:00,73.0,70.2,29.73,WSW,251,5.0,14.0,91,0.00,,---,0.19,VWS V14.01,2013-02-22 01:16:00,
2013-02-21 19:21:00,73.0,70.5,29.73,SW,228,11.0,16.0,92,0.00,,---,0.19,VWS V14.01,2013-02-22 01:21:00,
2013-02-21 19:26:00,73.0,70.5,29.73,SSW,212,6.0,16.0,92,0.00,,---,0.19,VWS V14.01,2013-02-22 01:26:00,
2013-02-21 19:30:00,73.0,70.5,29.73,SSW,208,16.0,16.0,92,0.00,,---,0.19,VWS V14.01,2013-02-22 01:30:00,
2013-02-21 19:31:00,73.0,70.5,29.73,South,178,7.0,16.0,92,0.00,,---,0.19,VWS V14.01,2013-02-22 01:31:00,
2013-02-21 19:36:00,72.7,70.2,29.73,SW,215,9.0,16.0,92,0.00,,---,0.19,VWS V14.01,2013-02-22 01:36:00,
2013-02-21 19:41:00,72.8,70.3,29.73,SSW,192,11.0,16.0,92,0.00,,---,0.19,VWS V14.01,2013-02-22 01:41:00,
2013-02-21 19:45:00,73.0,70.2,29.73,SSW,199,24.0,24.0,91,0.00,,---,0.19,VWS V14.01,2013-02-22 01:45:00,
2013-02-21 19:47:00,73.2,70.4,29.73,SSW,200,15.0,24.0,91,0.00,,---,0.19,VWS V14.01,2013-02-22 01:47:00,
2013-02-21 19:52:00,73.2,70.1,29.73,SSW,197,11.0,24.0,90,0.01,,---,0.20,VWS V14.01,2013-02-22 01:52:00,
2013-02-21 19:57:00,73.3,70.2,29.73,SW,225,18.0,24.0,90,0.01,,---,0.20,VWS V14.01,2013-02-22 01:57:00,
2013-02-21 20:00:00,73.5,70.4,29.73,SSW,202,15.0,24.0,90,0.01,,---,0.20,VWS V14.01,2013-02-22 02:00:00,
2013-02-21 20:02:00,73.5,70.1,29.73,SSW,201,15.0,20.0,89,0.01,,---,0.20,VWS V14.01,2013-02-22 02:02:00,
2013-02-21 20:07:00,73.5,70.1,29.73,SSW,198,13.0,22.0,89,0.01,,---,0.20,VWS V14.01,2013-02-22 02:07:00,
2013-02-21 20:12:00,73.5,70.1,29.73,SSW,209,11.0,22.0,89,0.01,,---,0.20,VWS V14.01,2013-02-22 02:12:00,
2013-02-21 20:15:00,73.5,70.1,29.73,SW,217,10.0,22.0,89,0.01,,---,0.20,VWS V14.01,2013-02-22 02:15:00,
2013-02-21 20:17:00,73.5,70.1,29.73,SSW,210,6.0,17.0,89,0.01,,---,0.20,VWS V14.01,2013-02-22 02:17:00,
2013-02-21 20:22:00,73.7,70.3,29.73,SSW,194,20.0,21.0,89,0.01,,---,0.20,VWS V14.01,2013-02-22 02:22:00,
2013-02-21 20:27:00,73.9,70.5,29.73,South,186,9.0,25.0,89,0.01,,---,0.20,VWS V14.01,2013-02-22 02:27:00,
2013-02-21 20:30:00,73.7,70.3,29.76,SSW,202,7.0,16.0,89,0.00,,---,0.20,VWS V14.01,2013-02-22 02:30:00,
2013-02-21 20:32:00,74.0,70.2,29.73,SW,231,15.0,22.0,88,0.01,,---,0.20,VWS V14.01,2013-02-22 02:32:00,
2013-02-21 20:37:00,74.2,70.4,29.73,SSW,206,7.0,25.0,88,0.01,,---,0.20,VWS V14.01,2013-02-22 02:37:00,
2013-02-21 20:42:00,74.4,70.6,29.73,SW,219,6.0,25.0,88,0.01,,---,0.20,VWS V14.01,2013-02-22 02:42:00,
2013-02-21 20:45:00,73.9,70.1,29.74,SW,223,17.0,25.0,88,0.01,,---,0.20,VWS V14.01,2013-02-22 02:45:00,
2013-02-21 20:47:00,73.9,70.1,29.74,South,186,19.0,23.0,88,0.01,,---,0.20,VWS V14.01,2013-02-22 02:47:00,
2013-02-21 20:52:00,73.9,70.5,29.74,SW,235,5.0,23.0,89,0.01,,---,0.20,VWS V14.01,2013-02-22 02:52:00,
2013-02-21 20:57:00,73.9,70.1,29.74,SSW,199,12.0,23.0,88,0.01,,---,0.20,VWS V14.01,2013-02-22 02:57:00,
2013-02-21 21:00:00,73.9,70.5,29.75,SSW,197,12.0,23.0,89,0.01,,---,0.20,VWS V14.01,2013-02-22 03:00:00,
2013-02-21 21:02:00,73.9,70.5,29.75,SSW,212,22.0,22.0,89,0.00,,---,0.20,VWS V14.01,2013-02-22 03:02:00,
2013-02-21 21:07:00,73.9,70.5,29.75,SSW,196,17.0,24.0,89,0.00,,---,0.20,VWS V14.01,2013-02-22 03:07:00,
2013-02-21 21:12:00,73.9,70.5,29.75,SSW,205,13.0,24.0,89,0.00,,---,0.20,VWS V14.01,2013-02-22 03:12:00,
2013-02-21 21:15:00,73.9,70.5,29.75,SW,229,6.0,24.0,89,0.00,,---,0.20,VWS V14.01,2013-02-22 03:15:00,
2013-02-21 21:18:00,73.7,70.3,29.75,SSW,213,10.0,15.0,89,0.00,,---,0.20,VWS V14.01,2013-02-22 03:18:00,
2013-02-21 21:23:00,73.7,70.3,29.75,SW,214,5.0,15.0,89,0.00,,---,0.20,VWS V14.01,2013-02-22 03:23:00,
2013-02-21 21:28:00,74.0,70.6,29.75,SSW,205,9.0,16.0,89,0.00,,---,0.20,VWS V14.01,2013-02-22 03:28:00,
2013-02-21 21:30:00,73.7,70.3,29.76,SSW,202,7.0,16.0,89,0.00,,---,0.20,VWS V14.01,2013-02-22 03:30:00,
2013-02-21 21:33:00,73.7,70.3,29.76,WSW,238,4.0,14.0,89,0.00,,---,0.20,VWS V14.01,2013-02-22 03:33:00,
2013-02-21 21:38:00,74.0,70.6,29.76,SSW,211,13.0,17.0,89,0.00,,---,0.20,VWS V14.01,2013-02-22 03:38:00,
2013-02-21 21:43:00,73.7,70.3,29.76,SSW,208,6.0,17.0,89,0.00,,---,0.20,VWS V14.01,2013-02-22 03:43:00,
2013-02-21 21:45:00,73.7,70.3,29.76,SW,223,3.0,17.0,89,0.00,,---,0.20,VWS V14.01,2013-02-22 03:45:00,
2013-02-21 21:48:00,73.5,70.4,29.76,WSW,250,3.0,15.0,90,0.00,,---,0.20,VWS V14.01,2013-02-22 03:48:00,
2013-02-21 21:53:00,73.5,70.4,29.76,SSW,202,9.0,15.0,90,0.00,,---,0.20,VWS V14.01,2013-02-22 03:53:00,
2013-02-21 21:58:00,73.7,70.6,29.76,WSW,252,10.0,18.0,90,0.00,,---,0.20,VWS V14.01,2013-02-22 03:58:00,
2013-02-21 22:00:00,73.7,70.6,29.76,SW,226,10.0,18.0,90,0.00,,---,0.20,VWS V14.01,2013-02-22 04:00:00,
2013-02-21 22:03:00,73.7,70.6,29.76,SSW,205,6.0,14.0,90,0.00,,---,0.20,VWS V14.01,2013-02-22 04:03:00,
2013-02-21 22:08:00,73.7,70.6,29.76,West,281,2.0,14.0,90,0.00,,---,0.20,VWS V14.01,2013-02-22 04:08:00,
2013-02-21 22:13:00,73.7,70.6,29.78,West,263,0.0,14.0,90,0.00,,---,0.20,VWS V14.01,2013-02-22 04:13:00,
2013-02-21 22:15:00,73.7,70.6,29.78,West,263,0.0,14.0,90,0.00,,---,0.20,VWS V14.01,2013-02-22 04:15:00,
2013-02-21 22:18:00,73.5,70.1,29.78,West,263,0.0,0.0,89,0.00,,---,0.20,VWS V14.01,2013-02-22 04:18:00,
2013-02-21 22:23:00,73.3,70.2,29.78,West,281,6.0,6.0,90,0.00,,---,0.20,VWS V14.01,2013-02-22 04:23:00,
2013-02-21 22:28:00,73.5,70.4,29.78,SSW,194,3.0,7.0,90,0.00,,---,0.20,VWS V14.01,2013-02-22 04:28:00,
2013-02-21 22:30:00,73.3,70.2,29.78,SSW,203,4.0,7.0,90,0.00,,---,0.20,VWS V14.01,2013-02-22 04:30:00,
2013-02-21 22:34:00,73.5,70.4,29.78,SW,219,0.0,7.0,90,0.00,,---,0.20,VWS V14.01,2013-02-22 04:34:00,
2013-02-21 22:39:00,73.7,70.9,29.78,SW,230,2.0,7.0,91,0.00,,---,0.20,VWS V14.01,2013-02-22 04:39:00,
2013-02-21 22:44:00,73.7,70.9,29.78,SW,220,5.0,9.0,91,0.00,,---,0.20,VWS V14.01,2013-02-22 04:44:00,
2013-02-21 22:45:00,73.3,70.5,29.78,SW,236,3.0,9.0,91,0.00,,---,0.20,VWS V14.01,2013-02-22 04:45:00,
2013-02-21 22:49:00,73.9,71.1,29.78,WSW,248,0.0,10.0,91,0.00,,---,0.20,VWS V14.01,2013-02-22 04:49:00,
2013-02-21 22:54:00,73.5,70.7,29.78,SSW,213,3.0,11.0,91,0.00,,---,0.20,VWS V14.01,2013-02-22 04:54:00,
2013-02-21 22:59:00,73.5,70.7,29.78,SW,236,2.0,11.0,91,0.00,,---,0.20,VWS V14.01,2013-02-22 04:59:00,
2013-02-21 23:00:00,73.3,70.5,29.78,SW,235,0.0,3.0,91,0.00,,---,0.20,VWS V14.01,2013-02-22 05:00:00,
2013-02-21 23:01:00,73.3,70.2,29.78,SW,224,0.0,3.0,90,0.00,,---,0.20,VWS V14.01,2013-02-22 05:01:00,
2013-02-21 23:06:00,73.3,70.2,29.78,West,277,0.0,7.0,90,0.00,,---,0.20,VWS V14.01,2013-02-22 05:06:00,
2013-02-21 23:11:00,73.0,69.9,29.78,West,273,0.0,7.0,90,0.00,,---,0.20,VWS V14.01,2013-02-22 05:11:00,
2013-02-21 23:15:00,73.0,69.9,29.79,West,273,0.0,7.0,90,0.00,,---,0.20,VWS V14.01,2013-02-22 05:15:00,
2013-02-21 23:16:00,73.0,69.9,29.79,West,273,0.0,0.0,90,0.00,,---,0.20,VWS V14.01,2013-02-22 05:16:00,
2013-02-21 23:21:00,72.8,70.0,29.79,SW,223,0.0,0.0,91,0.00,,---,0.20,VWS V14.01,2013-02-22 05:21:00,
2013-02-21 23:26:00,73.0,70.2,29.79,WSW,248,0.0,6.0,91,0.00,,---,0.20,VWS V14.01,2013-02-22 05:26:00,
2013-02-21 23:30:00,73.5,70.7,29.79,SW,234,0.0,6.0,91,0.00,,---,0.20,VWS V14.01,2013-02-22 05:30:00,
2013-02-21 23:31:00,73.2,70.7,29.79,SW,219,2.0,4.0,92,0.00,,---,0.20,VWS V14.01,2013-02-22 05:31:00,
2013-02-21 23:36:00,73.2,70.4,29.79,SW,219,0.0,4.0,91,0.00,,---,0.20,VWS V14.01,2013-02-22 05:36:00,
2013-02-21 23:41:00,72.1,67.7,29.79,North,360,9.0,13.0,86,0.00,,---,0.20,VWS V14.01,2013-02-22 05:41:00,
2013-02-21 23:45:00,71.1,66.7,29.79,North,355,8.0,13.0,86,0.00,,---,0.20,VWS V14.01,2013-02-22 05:45:00,
2013-02-21 23:46:00,70.4,65.3,29.79,West,271,3.0,10.0,84,0.00,,---,0.20,VWS V14.01,2013-02-22 05:46:00,
2013-02-21 23:52:00,69.3,64.3,29.79,North,360,6.0,10.0,84,0.00,,---,0.20,VWS V14.01,2013-02-22 05:52:00,
2013-02-21 23:57:00,68.6,63.6,29.79,NNE,24,3.0,12.0,84,0.00,,---,0.20,VWS V14.01,2013-02-22 05:57:00,